FZWA

Mbuji Mayi Airport

Mbuji Mayi, Congo, Democratic Republic of
METAR FZWA 161400Z VRB03KT 9999 SCT026 BKN300 30/20 Q1012 NOSIG
Observed Flight Rules
Dec-16 @ 14:00 UTC (11 hours ago) Visual Flight Rules
Wind Visibility Clouds
Variable at 3 knots 10,000+ meters
  • Scattered at 2,600' AGL
  • Broken at 30,000' AGL
Temperatures Readings
Current 30°C / 86°F
Dewpoint 20°C / 68°F
Humidity 55%
Altimeter 29.88" Hg
Pressure 1012 hPa
Elevation 677
METAR FZWA 161400Z VRB03KT 9999 SCT026 BKN300 30/20 Q1012 NOSIG
Observed Flight Rules
Dec-16 @ 14:00 UTC
(11 hours ago)
VFR
Wind Visibility
Variable at 3 knots 10,000+ meters
Clouds
  • Scattered at 2,600' AGL
  • Broken at 30,000' AGL
Temperature Dewpoint
30°C / 86°F 20°C / 68°F
Humidity Altimeter Pressure
55% 29.88" Hg 1012 hPa